Time,TemperatureF,DewpointF,PressureIn,WindDirection,WindDirectionDegrees,WindSpeedMPH,WindSpeedGustMPH,Humidity,HourlyPrecipIn,Conditions,Clouds,dailyrainin,SolarRadiationWatts/m^2,SoftwareType,DateUTC
2013-09-02 00:22:00,57.0,43.0,-100.00,SE,139,5.0,7.0,59,0.00,,,0.00,0.000000,,2013-09-02 06:22:00,
2013-09-02 00:32:00,57.0,43.0,-100.00,SE,139,5.0,7.0,59,0.00,,,0.00,0.000000,,2013-09-02 06:32:00,
2013-09-02 00:43:00,57.0,43.0,-100.00,SE,139,5.0,7.0,59,0.00,,,0.00,0.000000,,2013-09-02 06:43:00,
2013-09-02 00:52:00,57.0,43.0,-100.00,SE,139,5.0,7.0,59,0.00,,,0.00,0.000000,,2013-09-02 06:52:00,
2013-09-02 01:21:00,56.0,43.0,-100.00,SE,141,7.0,10.0,62,0.00,,,0.00,1.000000,,2013-09-02 07:21:00,
2013-09-02 01:33:00,56.0,43.0,-100.00,SE,141,7.0,10.0,62,0.00,,,0.00,1.000000,,2013-09-02 07:33:00,
2013-09-02 01:42:00,56.0,43.0,-100.00,SE,141,7.0,10.0,62,0.00,,,0.00,1.000000,,2013-09-02 07:42:00,
2013-09-02 01:52:00,56.0,43.0,-100.00,SE,141,7.0,10.0,62,0.00,,,0.00,1.000000,,2013-09-02 07:52:00,
2013-09-02 02:22:00,56.0,43.0,-100.00,SSE,147,6.0,10.0,61,0.00,,,0.00,1.000000,,2013-09-02 08:22:00,
2013-09-02 02:32:00,56.0,43.0,-100.00,SSE,147,6.0,10.0,61,0.00,,,0.00,1.000000,,2013-09-02 08:32:00,
2013-09-02 02:42:00,56.0,43.0,-100.00,SSE,147,6.0,10.0,61,0.00,,,0.00,1.000000,,2013-09-02 08:42:00,
2013-09-02 02:52:00,56.0,43.0,-100.00,SSE,147,6.0,10.0,61,0.00,,,0.00,1.000000,,2013-09-02 08:52:00,
2013-09-02 03:22:00,56.0,42.0,-100.00,SE,137,5.0,10.0,60,0.00,,,0.00,1.000000,,2013-09-02 09:22:00,
2013-09-02 03:34:00,56.0,42.0,-100.00,SE,137,5.0,10.0,60,0.00,,,0.00,1.000000,,2013-09-02 09:34:00,
2013-09-02 03:43:00,56.0,42.0,-100.00,SE,137,5.0,10.0,60,0.00,,,0.00,1.000000,,2013-09-02 09:43:00,
2013-09-02 03:53:00,56.0,42.0,-100.00,SE,137,5.0,10.0,60,0.00,,,0.00,1.000000,,2013-09-02 09:53:00,
2013-09-02 04:22:00,54.0,42.0,-100.00,SSE,158,6.0,9.0,64,0.00,,,0.00,0.000000,,2013-09-02 10:22:00,
2013-09-02 04:33:00,54.0,42.0,-100.00,SSE,158,6.0,9.0,64,0.00,,,0.00,0.000000,,2013-09-02 10:33:00,
2013-09-02 04:42:00,54.0,42.0,-100.00,SSE,158,6.0,9.0,64,0.00,,,0.00,0.000000,,2013-09-02 10:42:00,
2013-09-02 04:53:00,54.0,42.0,-100.00,SSE,158,6.0,9.0,64,0.00,,,0.00,0.000000,,2013-09-02 10:53:00,
2013-09-02 05:22:00,54.0,42.0,-100.00,ESE,114,5.0,10.0,64,0.00,,,0.00,1.000000,,2013-09-02 11:22:00,
2013-09-02 05:33:00,54.0,42.0,-100.00,ESE,114,5.0,10.0,64,0.00,,,0.00,1.000000,,2013-09-02 11:33:00,
2013-09-02 05:42:00,54.0,42.0,-100.00,ESE,114,5.0,10.0,64,0.00,,,0.00,1.000000,,2013-09-02 11:42:00,
2013-09-02 05:52:00,54.0,42.0,-100.00,ESE,114,5.0,10.0,64,0.00,,,0.00,1.000000,,2013-09-02 11:52:00,
2013-09-02 06:21:00,54.0,43.0,-100.00,SSE,152,7.0,10.0,65,0.00,,,0.00,0.000000,,2013-09-02 12:21:00,
2013-09-02 06:32:00,54.0,43.0,-100.00,SSE,152,7.0,10.0,65,0.00,,,0.00,0.000000,,2013-09-02 12:32:00,
2013-09-02 06:43:00,54.0,43.0,-100.00,SSE,152,7.0,10.0,65,0.00,,,0.00,0.000000,,2013-09-02 12:43:00,
2013-09-02 06:52:00,54.0,43.0,-100.00,SSE,152,7.0,10.0,65,0.00,,,0.00,0.000000,,2013-09-02 12:52:00,
2013-09-02 07:22:00,52.0,42.0,-100.00,South,170,5.0,8.0,68,0.00,,,0.00,3.000000,,2013-09-02 13:22:00,
2013-09-02 07:32:00,52.0,42.0,-100.00,South,170,5.0,8.0,68,0.00,,,0.00,3.000000,,2013-09-02 13:32:00,
2013-09-02 07:42:00,52.0,42.0,-100.00,South,170,5.0,8.0,68,0.00,,,0.00,3.000000,,2013-09-02 13:42:00,
2013-09-02 07:52:00,52.0,42.0,-100.00,South,170,5.0,8.0,68,0.00,,,0.00,3.000000,,2013-09-02 13:52:00,
2013-09-02 08:22:00,59.0,44.0,-100.00,SE,141,8.0,10.0,58,0.00,,,0.00,101.000000,,2013-09-02 14:22:00,
2013-09-02 08:32:00,59.0,44.0,-100.00,SE,141,8.0,10.0,58,0.00,,,0.00,101.000000,,2013-09-02 14:32:00,
2013-09-02 08:43:00,59.0,44.0,-100.00,SE,141,8.0,10.0,58,0.00,,,0.00,101.000000,,2013-09-02 14:43:00,
2013-09-02 08:52:00,59.0,44.0,-100.00,SE,141,8.0,10.0,58,0.00,,,0.00,101.000000,,2013-09-02 14:52:00,
2013-09-02 09:23:00,62.0,45.0,-100.00,SSE,149,9.0,12.0,53,0.00,,,0.00,297.000000,,2013-09-02 15:23:00,
2013-09-02 09:34:00,62.0,45.0,-100.00,SSE,149,9.0,12.0,53,0.00,,,0.00,297.000000,,2013-09-02 15:34:00,
2013-09-02 09:44:00,62.0,45.0,-100.00,SSE,149,9.0,12.0,53,0.00,,,0.00,297.000000,,2013-09-02 15:44:00,
2013-09-02 09:54:00,62.0,45.0,-100.00,SSE,149,9.0,12.0,53,0.00,,,0.00,297.000000,,2013-09-02 15:54:00,
2013-09-02 10:24:00,65.0,45.0,-100.00,South,178,8.0,14.0,49,0.00,,,0.00,495.000000,,2013-09-02 16:24:00,
2013-09-02 10:34:00,65.0,45.0,-100.00,South,178,8.0,14.0,49,0.00,,,0.00,495.000000,,2013-09-02 16:34:00,
2013-09-02 10:42:00,65.0,45.0,-100.00,South,178,8.0,14.0,49,0.00,,,0.00,495.000000,,2013-09-02 16:42:00,
2013-09-02 10:53:00,65.0,45.0,-100.00,South,178,8.0,14.0,49,0.00,,,0.00,495.000000,,2013-09-02 16:53:00,
2013-09-02 11:23:00,64.0,45.0,-100.00,SSW,192,8.0,14.0,50,0.00,,,0.00,517.000000,,2013-09-02 17:23:00,
2013-09-02 11:34:00,64.0,45.0,-100.00,SSW,192,8.0,14.0,50,0.00,,,0.00,517.000000,,2013-09-02 17:34:00,
2013-09-02 11:44:00,64.0,45.0,-100.00,SSW,192,8.0,14.0,50,0.00,,,0.00,517.000000,,2013-09-02 17:44:00,
2013-09-02 11:52:00,64.0,45.0,-100.00,SSW,192,8.0,14.0,50,0.00,,,0.00,517.000000,,2013-09-02 17:52:00,
2013-09-02 12:22:00,70.0,47.0,-100.00,SSW,203,9.0,19.0,44,0.00,,,0.00,752.000000,,2013-09-02 18:22:00,
2013-09-02 12:32:00,70.0,47.0,-100.00,SSW,203,9.0,19.0,44,0.00,,,0.00,752.000000,,2013-09-02 18:32:00,
2013-09-02 12:42:00,70.0,47.0,-100.00,SSW,203,9.0,19.0,44,0.00,,,0.00,752.000000,,2013-09-02 18:42:00,
2013-09-02 12:52:00,70.0,47.0,-100.00,SSW,203,9.0,19.0,44,0.00,,,0.00,752.000000,,2013-09-02 18:52:00,
2013-09-02 13:22:00,71.0,47.0,-100.00,SSW,196,11.0,20.0,43,0.00,,,0.00,883.000000,,2013-09-02 19:22:00,
2013-09-02 13:32:00,71.0,47.0,-100.00,SSW,196,11.0,20.0,43,0.00,,,0.00,883.000000,,2013-09-02 19:32:00,
2013-09-02 13:42:00,71.0,47.0,-100.00,SSW,196,11.0,20.0,43,0.00,,,0.00,883.000000,,2013-09-02 19:42:00,
2013-09-02 13:52:00,71.0,47.0,-100.00,SSW,196,11.0,20.0,43,0.00,,,0.00,883.000000,,2013-09-02 19:52:00,
2013-09-02 14:22:00,73.0,45.0,-100.00,South,190,11.0,22.0,37,0.00,,,0.00,956.000000,,2013-09-02 20:22:00,
2013-09-02 14:32:00,73.0,45.0,-100.00,South,190,11.0,22.0,37,0.00,,,0.00,956.000000,,2013-09-02 20:32:00,
2013-09-02 14:42:00,73.0,45.0,-100.00,South,190,11.0,22.0,37,0.00,,,0.00,956.000000,,2013-09-02 20:42:00,
2013-09-02 14:52:00,73.0,45.0,-100.00,South,190,11.0,22.0,37,0.00,,,0.00,956.000000,,2013-09-02 20:52:00,
2013-09-02 15:23:00,73.0,43.0,-100.00,SSW,211,10.0,20.0,34,0.00,,,0.00,893.000000,,2013-09-02 21:23:00,
2013-09-02 15:34:00,73.0,43.0,-100.00,SSW,211,10.0,20.0,34,0.00,,,0.00,893.000000,,2013-09-02 21:34:00,
2013-09-02 15:44:00,73.0,43.0,-100.00,SSW,211,10.0,20.0,34,0.00,,,0.00,893.000000,,2013-09-02 21:44:00,
2013-09-02 15:54:00,73.0,43.0,-100.00,SSW,211,10.0,20.0,34,0.00,,,0.00,893.000000,,2013-09-02 21:54:00,
2013-09-02 16:23:00,74.0,43.0,-100.00,SSW,206,11.0,20.0,33,0.00,,,0.00,741.000000,,2013-09-02 22:23:00,
2013-09-02 16:33:00,74.0,43.0,-100.00,SSW,206,11.0,20.0,33,0.00,,,0.00,741.000000,,2013-09-02 22:33:00,
2013-09-02 16:43:00,74.0,43.0,-100.00,SSW,206,11.0,20.0,33,0.00,,,0.00,741.000000,,2013-09-02 22:43:00,
2013-09-02 16:54:00,74.0,43.0,-100.00,SSW,206,11.0,20.0,33,0.00,,,0.00,741.000000,,2013-09-02 22:54:00,
2013-09-02 17:22:00,74.0,41.0,-100.00,SSW,211,10.0,19.0,30,0.00,,,0.00,493.000000,,2013-09-02 23:22:00,
2013-09-02 17:34:00,74.0,41.0,-100.00,SSW,211,10.0,19.0,30,0.00,,,0.00,493.000000,,2013-09-02 23:34:00,
2013-09-02 17:42:00,74.0,41.0,-100.00,SSW,211,10.0,19.0,30,0.00,,,0.00,493.000000,,2013-09-02 23:42:00,
2013-09-02 17:52:00,74.0,41.0,-100.00,SSW,211,10.0,19.0,30,0.00,,,0.00,493.000000,,2013-09-02 23:52:00,
2013-09-02 18:21:00,73.0,38.0,-100.00,SSW,196,7.0,17.0,28,0.00,,,0.00,426.000000,,2013-09-03 00:21:00,
2013-09-02 18:32:00,73.0,38.0,-100.00,SSW,196,7.0,17.0,28,0.00,,,0.00,426.000000,,2013-09-03 00:32:00,
2013-09-02 18:42:00,73.0,38.0,-100.00,SSW,196,7.0,17.0,28,0.00,,,0.00,426.000000,,2013-09-03 00:42:00,
2013-09-02 18:52:00,73.0,38.0,-100.00,SSW,196,7.0,17.0,28,0.00,,,0.00,426.000000,,2013-09-03 00:52:00,
2013-09-02 19:21:00,69.0,37.0,-100.00,SSW,210,9.0,13.0,31,0.00,,,0.00,231.000000,,2013-09-03 01:21:00,
2013-09-02 19:32:00,69.0,37.0,-100.00,SSW,210,9.0,13.0,31,0.00,,,0.00,231.000000,,2013-09-03 01:32:00,
2013-09-02 19:42:00,69.0,37.0,-100.00,SSW,210,9.0,13.0,31,0.00,,,0.00,231.000000,,2013-09-03 01:42:00,
2013-09-02 19:52:00,69.0,37.0,-100.00,SSW,210,9.0,13.0,31,0.00,,,0.00,231.000000,,2013-09-03 01:52:00,
2013-09-02 20:21:00,63.0,40.0,-100.00,WNW,293,5.0,11.0,43,0.00,,,-99.99,29.000000,,2013-09-03 02:21:00,
2013-09-02 20:33:00,63.0,40.0,-100.00,WNW,293,5.0,11.0,43,0.00,,,-99.99,29.000000,,2013-09-03 02:33:00,
2013-09-02 20:42:00,63.0,40.0,-100.00,WNW,293,5.0,11.0,43,0.00,,,-99.99,29.000000,,2013-09-03 02:42:00,
2013-09-02 20:52:00,63.0,40.0,-100.00,WNW,293,5.0,11.0,43,0.00,,,-99.99,29.000000,,2013-09-03 02:52:00,
2013-09-02 20:55:00,61.0,42.0,-100.00,WSW,252,8.0,12.0,50,0.00,,,0.00,1.000000,,2013-09-03 02:55:00,
2013-09-02 21:23:00,61.0,42.0,-100.00,WSW,252,8.0,12.0,50,0.00,,,0.00,1.000000,,2013-09-03 03:23:00,
2013-09-02 21:34:00,61.0,42.0,-100.00,WSW,252,8.0,12.0,50,0.00,,,0.00,1.000000,,2013-09-03 03:34:00,
2013-09-02 21:45:00,61.0,42.0,-100.00,WSW,252,8.0,12.0,50,0.00,,,0.00,1.000000,,2013-09-03 03:45:00,
2013-09-02 22:25:00,60.0,42.0,-100.00,West,277,6.0,11.0,51,0.00,,,0.00,1.000000,,2013-09-03 04:25:00,
2013-09-02 22:34:00,60.0,42.0,-100.00,West,277,6.0,11.0,51,0.00,,,0.00,1.000000,,2013-09-03 04:34:00,
2013-09-02 22:44:00,60.0,42.0,-100.00,West,277,6.0,11.0,51,0.00,,,0.00,1.000000,,2013-09-03 04:44:00,
2013-09-02 22:53:00,60.0,42.0,-100.00,West,277,6.0,11.0,51,0.00,,,0.00,1.000000,,2013-09-03 04:53:00,
2013-09-02 23:23:00,60.0,45.0,-100.00,West,278,6.0,10.0,57,0.00,,,0.00,1.000000,,2013-09-03 05:23:00,
2013-09-02 23:34:00,60.0,45.0,-100.00,West,278,6.0,10.0,57,0.00,,,0.00,1.000000,,2013-09-03 05:34:00,
2013-09-02 23:43:00,60.0,45.0,-100.00,West,278,6.0,10.0,57,0.00,,,0.00,1.000000,,2013-09-03 05:43:00,
2013-09-02 23:52:00,60.0,45.0,-100.00,West,278,6.0,10.0,57,0.00,,,0.00,1.000000,,2013-09-03 05:52:00,